createdAt,value
2019-03-16T00:00:24.511Z,995.97
2019-03-16T00:01:24.707Z,995.99
2019-03-16T00:02:24.403Z,996.11
2019-03-16T00:03:24.394Z,996.14
2019-03-16T00:04:24.382Z,996.05
2019-03-16T00:05:24.372Z,996.20
2019-03-16T00:06:24.363Z,996.13
2019-03-16T00:07:32.994Z,996.12
2019-03-16T00:08:25.335Z,996.22
2019-03-16T00:09:24.326Z,996.23
2019-03-16T00:10:24.319Z,996.19
2019-03-16T00:11:24.305Z,996.30
2019-03-16T00:12:24.292Z,996.32
2019-03-16T00:13:24.303Z,996.44
2019-03-16T00:14:24.273Z,996.51
2019-03-16T00:15:24.261Z,996.45
2019-03-16T00:16:24.248Z,996.50
2019-03-16T00:17:24.238Z,996.38
2019-03-16T00:18:24.230Z,996.44
2019-03-16T00:19:24.552Z,996.36
2019-03-16T00:20:24.203Z,996.50
2019-03-16T00:21:24.193Z,996.38
2019-03-16T00:22:24.187Z,996.38
2019-03-16T00:23:24.171Z,996.57
2019-03-16T00:24:24.159Z,996.41
2019-03-16T00:25:24.155Z,996.44
2019-03-16T00:26:24.138Z,996.46
2019-03-16T00:27:24.126Z,996.50
2019-03-16T00:28:24.114Z,996.52
2019-03-16T00:29:24.103Z,996.42
2019-03-16T00:30:24.095Z,996.54
2019-03-16T00:31:24.415Z,996.48
2019-03-16T00:32:24.072Z,996.55
2019-03-16T00:33:24.061Z,996.59
2019-03-16T00:34:24.048Z,996.49
2019-03-16T00:35:24.038Z,996.64
2019-03-16T00:36:24.030Z,996.53
2019-03-16T00:37:24.035Z,996.61
2019-03-16T00:38:24.004Z,996.74
2019-03-16T00:39:23.992Z,996.73
2019-03-16T00:40:23.981Z,996.74
2019-03-16T00:41:23.975Z,996.65
2019-03-16T00:42:23.958Z,996.85
2019-03-16T00:43:24.222Z,996.74
2019-03-16T00:44:23.936Z,996.78
2019-03-16T00:45:23.930Z,996.79
2019-03-16T00:46:23.915Z,996.78
2019-03-16T00:47:23.904Z,996.84
2019-03-16T00:48:23.892Z,996.83
2019-03-16T00:49:24.206Z,996.78
2019-03-16T00:50:23.869Z,996.73
2019-03-16T00:51:23.858Z,996.77
2019-03-16T00:52:23.847Z,996.88
2019-03-16T00:53:23.838Z,996.82
2019-03-16T00:54:23.825Z,996.75
2019-03-16T00:55:23.825Z,996.94
2019-03-16T00:56:23.803Z,996.87
2019-03-16T00:57:23.792Z,996.83
2019-03-16T00:58:23.781Z,996.85
2019-03-16T00:59:23.769Z,996.86
2019-03-16T01:00:23.760Z,996.92
2019-03-16T01:01:23.756Z,996.96
2019-03-16T01:02:27.476Z,996.92
2019-03-16T01:03:23.726Z,996.91
2019-03-16T01:04:23.714Z,996.96
2019-03-16T01:05:23.703Z,996.96
2019-03-16T01:06:23.692Z,996.94
2019-03-16T01:07:23.960Z,996.93
2019-03-16T01:08:23.672Z,997.00
2019-03-16T01:09:23.661Z,997.02
2019-03-16T01:10:23.649Z,996.98
2019-03-16T01:11:23.638Z,997.03
2019-03-16T01:12:23.628Z,997.08
2019-03-16T01:13:23.943Z,997.08
2019-03-16T01:14:23.604Z,997.06
2019-03-16T01:15:23.595Z,997.07
2019-03-16T01:16:23.583Z,997.05
2019-03-16T01:17:23.569Z,997.19
2019-03-16T01:18:23.558Z,997.12
2019-03-16T01:19:23.568Z,997.14
2019-03-16T01:20:23.538Z,997.19
2019-03-16T01:21:23.528Z,997.19
2019-03-16T01:22:23.513Z,997.25
2019-03-16T01:23:23.506Z,997.22
2019-03-16T01:24:23.491Z,997.31
2019-03-16T01:25:23.804Z,997.32
2019-03-16T01:26:23.468Z,997.30
2019-03-16T01:27:23.458Z,997.35
2019-03-16T01:28:23.448Z,997.21
2019-03-16T01:29:23.437Z,997.27
2019-03-16T01:30:23.425Z,997.23
2019-03-16T01:31:23.702Z,997.28
2019-03-16T01:32:23.403Z,997.33
2019-03-16T01:33:23.394Z,997.33
2019-03-16T01:34:23.380Z,997.32
2019-03-16T01:35:23.369Z,997.32
2019-03-16T01:36:23.360Z,997.33
2019-03-16T01:37:23.355Z,997.33
2019-03-16T01:38:23.335Z,997.42
2019-03-16T01:39:23.326Z,997.40
2019-03-16T01:40:23.314Z,997.40
2019-03-16T01:41:23.305Z,997.43
2019-03-16T01:42:23.293Z,997.49
2019-03-16T01:43:23.613Z,997.43
2019-03-16T01:44:23.269Z,997.49
2019-03-16T01:45:23.257Z,997.51
2019-03-16T01:46:23.247Z,997.61
2019-03-16T01:47:23.235Z,997.54
2019-03-16T01:48:23.225Z,997.47
2019-03-16T01:49:23.235Z,997.50
2019-03-16T01:50:23.203Z,997.53
2019-03-16T01:51:23.190Z,997.58
2019-03-16T01:52:23.181Z,997.63
2019-03-16T01:53:23.170Z,997.55
2019-03-16T01:54:23.158Z,997.56
2019-03-16T01:55:23.472Z,997.52
2019-03-16T01:56:23.145Z,997.56
2019-03-16T01:57:23.125Z,997.48
2019-03-16T01:58:23.115Z,997.51
2019-03-16T01:59:23.104Z,997.51
2019-03-16T02:00:23.174Z,997.62
2019-03-16T02:01:23.368Z,997.49
2019-03-16T02:02:23.069Z,997.59
2019-03-16T02:03:23.057Z,997.63
2019-03-16T02:04:23.049Z,997.69
2019-03-16T02:05:23.036Z,997.64
2019-03-16T02:06:23.025Z,997.65
2019-03-16T02:07:23.019Z,997.63
2019-03-16T02:08:23.003Z,997.59
2019-03-16T02:09:22.991Z,997.73
2019-03-16T02:10:22.979Z,997.74
2019-03-16T02:11:22.971Z,997.78
2019-03-16T02:12:22.957Z,997.79
2019-03-16T02:13:22.958Z,997.72
2019-03-16T02:14:22.936Z,997.88
2019-03-16T02:15:22.925Z,997.77
2019-03-16T02:16:22.916Z,997.80
2019-03-16T02:17:22.904Z,997.91
2019-03-16T02:18:22.892Z,997.84
2019-03-16T02:19:23.163Z,997.82
2019-03-16T02:20:22.868Z,997.82
2019-03-16T02:21:22.859Z,997.81
2019-03-16T02:22:22.998Z,997.88
2019-03-16T02:23:22.836Z,997.94
2019-03-16T02:24:22.825Z,997.94
2019-03-16T02:25:23.108Z,997.89
2019-03-16T02:26:22.804Z,998.01
2019-03-16T02:27:22.792Z,998.02
2019-03-16T02:28:22.781Z,998.07
2019-03-16T02:29:22.772Z,998.05
2019-03-16T02:30:22.758Z,998.06
2019-03-16T02:31:22.881Z,998.07
2019-03-16T02:32:22.737Z,998.01
2019-03-16T02:33:22.725Z,998.02
2019-03-16T02:34:22.715Z,998.14
2019-03-16T02:35:22.702Z,998.05
2019-03-16T02:36:22.700Z,998.13
2019-03-16T02:37:22.704Z,998.12
2019-03-16T02:38:22.671Z,998.16
2019-03-16T02:39:22.672Z,998.19
2019-03-16T02:40:22.697Z,998.20
2019-03-16T02:41:22.636Z,998.27
2019-03-16T02:42:22.627Z,998.28
2019-03-16T02:43:22.952Z,998.22
2019-03-16T02:44:22.602Z,998.27
2019-03-16T02:45:22.599Z,998.29
2019-03-16T02:46:22.579Z,998.36
2019-03-16T02:47:22.572Z,998.39
2019-03-16T02:48:22.560Z,998.36
2019-03-16T02:49:22.553Z,998.35
2019-03-16T02:50:22.538Z,998.38
2019-03-16T02:51:22.526Z,998.41
2019-03-16T02:52:22.512Z,998.46
2019-03-16T02:53:22.508Z,998.49
2019-03-16T02:54:22.491Z,998.51
2019-03-16T02:55:22.819Z,998.51
2019-03-16T02:56:22.469Z,998.58
2019-03-16T02:57:22.460Z,998.51
2019-03-16T02:58:22.450Z,998.51
2019-03-16T02:59:22.440Z,998.61
2019-03-16T03:00:22.424Z,998.59
2019-03-16T03:01:22.691Z,998.60
2019-03-16T03:02:22.412Z,998.58
2019-03-16T03:03:29.170Z,998.60
2019-03-16T03:04:23.380Z,998.69
2019-03-16T03:05:22.372Z,998.64
2019-03-16T03:06:22.362Z,998.67
2019-03-16T03:07:22.384Z,998.62
2019-03-16T03:08:22.344Z,998.62
2019-03-16T03:09:22.326Z,998.67
2019-03-16T03:10:22.316Z,998.66
2019-03-16T03:11:22.302Z,998.65
2019-03-16T03:12:22.291Z,998.64
2019-03-16T03:13:22.286Z,998.68
2019-03-16T03:14:22.270Z,998.66
2019-03-16T03:15:22.259Z,998.63
2019-03-16T03:16:22.247Z,998.61
2019-03-16T03:17:22.238Z,998.68
2019-03-16T03:18:22.226Z,998.72
2019-03-16T03:19:22.222Z,998.79
2019-03-16T03:20:22.202Z,998.80
2019-03-16T03:21:22.205Z,998.85
2019-03-16T03:22:22.180Z,998.84
2019-03-16T03:23:22.169Z,998.79
2019-03-16T03:24:22.161Z,998.80
2019-03-16T03:25:22.476Z,998.79
2019-03-16T03:26:22.136Z,998.83
2019-03-16T03:27:22.124Z,998.87
2019-03-16T03:28:22.113Z,998.82
2019-03-16T03:29:22.103Z,998.88
2019-03-16T03:30:22.104Z,998.87
2019-03-16T03:31:22.353Z,998.97
2019-03-16T03:32:22.071Z,998.94
2019-03-16T03:33:22.094Z,998.97
2019-03-16T03:34:22.053Z,998.99
2019-03-16T03:35:22.048Z,999.01
2019-03-16T03:36:22.024Z,999.00
2019-03-16T03:37:22.343Z,999.01
2019-03-16T03:38:22.005Z,999.04
2019-03-16T03:39:22.007Z,999.03
2019-03-16T03:40:22.063Z,999.08
2019-03-16T03:41:21.970Z,999.05
2019-03-16T03:42:22.071Z,999.14
2019-03-16T03:43:21.967Z,999.11
2019-03-16T03:44:21.941Z,999.07
2019-03-16T03:45:21.943Z,999.07
2019-03-16T03:46:21.925Z,999.11
2019-03-16T03:47:21.904Z,999.04
2019-03-16T03:48:21.897Z,999.17
2019-03-16T03:49:22.215Z,999.19
2019-03-16T03:50:21.871Z,999.18
2019-03-16T03:51:21.860Z,999.22
2019-03-16T03:52:21.847Z,999.26
2019-03-16T03:53:21.836Z,999.29
2019-03-16T03:54:21.827Z,999.23
2019-03-16T03:55:22.150Z,999.31
2019-03-16T03:56:21.808Z,999.24
2019-03-16T03:57:21.793Z,999.28
2019-03-16T03:58:21.784Z,999.27
2019-03-16T03:59:21.775Z,999.32
2019-03-16T04:00:21.762Z,999.35
2019-03-16T04:01:21.759Z,999.28
2019-03-16T04:02:21.737Z,999.28
2019-03-16T04:03:21.738Z,999.33
2019-03-16T04:04:21.715Z,999.37
2019-03-16T04:05:21.708Z,999.42
2019-03-16T04:06:21.691Z,999.41
2019-03-16T04:07:21.705Z,999.44
2019-03-16T04:08:21.670Z,999.46
2019-03-16T04:09:21.659Z,999.44
2019-03-16T04:10:21.648Z,999.48
2019-03-16T04:11:21.639Z,999.47
2019-03-16T04:12:21.627Z,999.49
2019-03-16T04:13:21.898Z,999.46
2019-03-16T04:14:21.607Z,999.53
2019-03-16T04:15:21.594Z,999.53
2019-03-16T04:16:21.594Z,999.52
2019-03-16T04:17:21.570Z,999.58
2019-03-16T04:18:21.565Z,999.60
2019-03-16T04:19:21.576Z,999.59
2019-03-16T04:20:21.537Z,999.59
2019-03-16T04:21:21.531Z,999.61
2019-03-16T04:22:21.514Z,999.62
2019-03-16T04:23:21.511Z,999.73
2019-03-16T04:24:21.495Z,999.70
2019-03-16T04:25:21.508Z,999.72
2019-03-16T04:26:21.470Z,999.78
2019-03-16T04:27:21.461Z,999.81
2019-03-16T04:28:21.464Z,999.84
2019-03-16T04:29:21.457Z,999.85
2019-03-16T04:30:21.426Z,999.83
2019-03-16T04:31:21.421Z,999.89
2019-03-16T04:32:21.414Z,999.93
2019-03-16T04:33:21.401Z,999.99
2019-03-16T04:34:29.300Z,1000.02
2019-03-16T04:35:22.370Z,1000.01
2019-03-16T04:36:21.359Z,1000.03
2019-03-16T04:37:21.633Z,1000.04
2019-03-16T04:38:21.342Z,1000.04
2019-03-16T04:39:21.330Z,1000.03
2019-03-16T04:40:21.317Z,1000.02
2019-03-16T04:41:21.306Z,1000.02
2019-03-16T04:42:21.294Z,1000.02
2019-03-16T04:43:21.309Z,1000.08
2019-03-16T04:44:21.275Z,1000.11
2019-03-16T04:45:21.263Z,1000.09
2019-03-16T04:46:21.248Z,1000.08
2019-03-16T04:47:21.237Z,1000.06
2019-03-16T04:48:21.227Z,1000.10
2019-03-16T04:49:21.234Z,1000.07
2019-03-16T04:50:21.204Z,1000.12
2019-03-16T04:51:21.197Z,1000.14
2019-03-16T04:52:21.185Z,1000.13
2019-03-16T04:53:21.172Z,1000.13
2019-03-16T04:54:21.162Z,1000.09
2019-03-16T04:55:21.486Z,1000.13
2019-03-16T04:56:21.139Z,1000.16
2019-03-16T04:57:21.127Z,1000.18
2019-03-16T04:58:21.117Z,1000.18
2019-03-16T04:59:21.105Z,1000.20
2019-03-16T05:00:21.094Z,1000.28
2019-03-16T05:01:21.103Z,1000.21
2019-03-16T05:02:21.072Z,1000.24
2019-03-16T05:03:21.060Z,1000.25
2019-03-16T05:04:21.050Z,1000.26
2019-03-16T05:05:21.038Z,1000.31
2019-03-16T05:06:21.027Z,1000.24
2019-03-16T05:07:21.291Z,1000.27
2019-03-16T05:08:21.006Z,1000.36
2019-03-16T05:09:20.994Z,1000.35
2019-03-16T05:10:20.984Z,1000.31
2019-03-16T05:11:20.972Z,1000.32
2019-03-16T05:12:20.962Z,1000.36
2019-03-16T05:13:21.238Z,1000.30
2019-03-16T05:14:20.939Z,1000.24
2019-03-16T05:15:20.930Z,1000.27
2019-03-16T05:16:20.917Z,1000.33
2019-03-16T05:17:20.907Z,1000.34
2019-03-16T05:18:20.898Z,1000.34
2019-03-16T05:19:21.168Z,1000.35
2019-03-16T05:20:20.874Z,1000.41
2019-03-16T05:21:20.863Z,1000.42
2019-03-16T05:22:20.849Z,1000.47
2019-03-16T05:23:20.839Z,1000.43
2019-03-16T05:24:20.827Z,1000.41
2019-03-16T05:25:21.101Z,1000.44
2019-03-16T05:26:20.806Z,1000.44
2019-03-16T05:27:20.795Z,1000.43
2019-03-16T05:28:20.783Z,1000.49
2019-03-16T05:29:20.773Z,1000.57
2019-03-16T05:30:20.762Z,1000.50
2019-03-16T05:31:21.089Z,1000.44
2019-03-16T05:32:20.738Z,1000.49
2019-03-16T05:33:20.729Z,1000.49
2019-03-16T05:34:20.776Z,1000.50
2019-03-16T05:35:20.709Z,1000.61
2019-03-16T05:36:20.694Z,1000.59
2019-03-16T05:37:20.704Z,1000.62
2019-03-16T05:38:20.674Z,1000.60
2019-03-16T05:39:20.662Z,1000.63
2019-03-16T05:40:20.650Z,1000.56
2019-03-16T05:41:20.638Z,1000.57
2019-03-16T05:42:20.628Z,1000.60
2019-03-16T05:43:20.624Z,1000.63
2019-03-16T05:44:20.605Z,1000.62
2019-03-16T05:45:20.595Z,1000.64
2019-03-16T05:46:20.586Z,1000.64
2019-03-16T05:47:20.574Z,1000.76
2019-03-16T05:48:20.563Z,1000.77
2019-03-16T05:49:20.560Z,1000.80
2019-03-16T05:50:20.541Z,1000.87
2019-03-16T05:51:20.530Z,1000.86
2019-03-16T05:52:20.517Z,1000.90
2019-03-16T05:53:20.505Z,1000.88
2019-03-16T05:54:20.494Z,1000.95
2019-03-16T05:55:20.489Z,1000.95
2019-03-16T05:56:20.472Z,1000.97
2019-03-16T05:57:20.460Z,1001.05
2019-03-16T05:58:20.450Z,1001.00
2019-03-16T05:59:20.439Z,1000.94
2019-03-16T06:00:20.433Z,1001.05
2019-03-16T06:01:20.437Z,1001.09
2019-03-16T06:02:20.406Z,1000.98
2019-03-16T06:03:20.398Z,1001.05
2019-03-16T06:04:20.388Z,1001.11
2019-03-16T06:05:20.373Z,1001.14
2019-03-16T06:06:20.363Z,1001.15
2019-03-16T06:07:20.687Z,1001.17
2019-03-16T06:08:20.338Z,1001.20
2019-03-16T06:09:20.328Z,1001.19
2019-03-16T06:10:20.319Z,1001.22
2019-03-16T06:11:20.307Z,1001.22
2019-03-16T06:12:20.295Z,1001.25
2019-03-16T06:13:20.560Z,1001.29
2019-03-16T06:14:20.273Z,1001.29
2019-03-16T06:15:20.262Z,1001.26
2019-03-16T06:16:20.250Z,1001.34
2019-03-16T06:17:20.240Z,1001.34
2019-03-16T06:18:20.231Z,1001.35
2019-03-16T06:19:20.226Z,1001.31
2019-03-16T06:20:20.210Z,1001.37
2019-03-16T06:21:20.195Z,1001.30
2019-03-16T06:22:20.184Z,1001.35
2019-03-16T06:23:20.173Z,1001.38
2019-03-16T06:24:20.162Z,1001.41
2019-03-16T06:25:20.158Z,1001.44
2019-03-16T06:26:20.141Z,1001.45
2019-03-16T06:27:20.129Z,1001.44
2019-03-16T06:28:20.119Z,1001.41
2019-03-16T06:29:20.108Z,1001.53
2019-03-16T06:30:21.002Z,1001.55
2019-03-16T06:31:20.090Z,1001.53
2019-03-16T06:32:20.073Z,1001.59
2019-03-16T06:33:20.066Z,1001.63
2019-03-16T06:34:20.052Z,1001.58
2019-03-16T06:35:26.369Z,1001.58
2019-03-16T06:36:22.938Z,1001.61
2019-03-16T06:37:20.018Z,1001.67
2019-03-16T06:38:20.008Z,1001.66
2019-03-16T06:39:19.998Z,1001.68
2019-03-16T06:40:19.984Z,1001.67
2019-03-16T06:41:19.975Z,1001.68
2019-03-16T06:42:20.244Z,1001.73
2019-03-16T06:43:19.951Z,1001.67
2019-03-16T06:44:19.940Z,1001.67
2019-03-16T06:45:19.931Z,1001.74
2019-03-16T06:46:19.918Z,1001.68
2019-03-16T06:47:22.982Z,1001.72
2019-03-16T06:48:20.304Z,1001.76
2019-03-16T06:49:19.884Z,1001.79
2019-03-16T06:50:19.875Z,1001.80
2019-03-16T06:51:19.866Z,1001.83
2019-03-16T06:52:19.852Z,1001.82
2019-03-16T06:53:19.841Z,1001.81
2019-03-16T06:54:19.838Z,1001.88
2019-03-16T06:55:19.818Z,1001.89
2019-03-16T06:56:19.807Z,1001.81
2019-03-16T06:57:19.796Z,1001.85
2019-03-16T06:58:19.787Z,1001.86
2019-03-16T06:59:19.775Z,1001.91
2019-03-16T07:00:20.039Z,1001.92
2019-03-16T07:01:19.753Z,1001.88
2019-03-16T07:02:19.743Z,1001.96
2019-03-16T07:03:19.734Z,1001.93
2019-03-16T07:04:19.719Z,1001.95
2019-03-16T07:05:23.350Z,1001.89
2019-03-16T07:06:19.717Z,1001.88
2019-03-16T07:07:19.688Z,1001.87
2019-03-16T07:08:19.674Z,1001.97
2019-03-16T07:09:19.662Z,1001.94
2019-03-16T07:10:19.653Z,1001.98
2019-03-16T07:11:19.642Z,1001.96
2019-03-16T07:12:19.640Z,1001.99
2019-03-16T07:13:19.618Z,1001.94
2019-03-16T07:14:19.611Z,1002.01
2019-03-16T07:15:19.597Z,1002.11
2019-03-16T07:16:19.586Z,1002.03
2019-03-16T07:17:19.576Z,1002.02
2019-03-16T07:18:19.888Z,1002.07
2019-03-16T07:19:19.552Z,1002.11
2019-03-16T07:20:19.541Z,1002.10
2019-03-16T07:21:19.531Z,1002.10
2019-03-16T07:22:19.523Z,1002.10
2019-03-16T07:23:19.597Z,1002.22
2019-03-16T07:24:19.506Z,1002.09
2019-03-16T07:25:19.486Z,1002.18
2019-03-16T07:26:19.474Z,1002.18
2019-03-16T07:27:25.994Z,1002.17
2019-03-16T07:28:20.452Z,1002.13
2019-03-16T07:29:19.445Z,1002.18
2019-03-16T07:30:19.439Z,1002.21
2019-03-16T07:31:19.419Z,1002.16
2019-03-16T07:32:19.412Z,1002.19
2019-03-16T07:33:19.403Z,1002.18
2019-03-16T07:34:19.391Z,1002.25
2019-03-16T07:35:19.376Z,1002.23
2019-03-16T07:36:19.650Z,1002.25
2019-03-16T07:37:19.354Z,1002.23
2019-03-16T07:38:19.342Z,1002.26
2019-03-16T07:39:19.333Z,1002.34
2019-03-16T07:40:19.321Z,1002.33
2019-03-16T07:41:19.320Z,1002.37
2019-03-16T07:42:19.586Z,1002.36
2019-03-16T07:43:19.291Z,1002.35
2019-03-16T07:44:19.279Z,1002.39
2019-03-16T07:45:19.264Z,1002.43
2019-03-16T07:46:19.253Z,1002.42
2019-03-16T07:47:19.247Z,1002.45
2019-03-16T07:48:19.503Z,1002.40
2019-03-16T07:49:19.220Z,1002.41
2019-03-16T07:50:19.209Z,1002.43
2019-03-16T07:51:19.197Z,1002.39
2019-03-16T07:52:19.186Z,1002.45
2019-03-16T07:53:19.176Z,1002.48
2019-03-16T07:54:19.494Z,1002.50
2019-03-16T07:55:19.154Z,1002.50
2019-03-16T07:56:19.142Z,1002.51
2019-03-16T07:57:19.132Z,1002.50
2019-03-16T07:58:19.121Z,1002.53
2019-03-16T07:59:19.111Z,1002.54
2019-03-16T08:00:19.122Z,1002.52
2019-03-16T08:01:19.087Z,1002.53
2019-03-16T08:02:19.080Z,1002.58
2019-03-16T08:03:19.065Z,1002.55
2019-03-16T08:04:19.055Z,1002.56
2019-03-16T08:05:19.503Z,1002.52
2019-03-16T08:06:19.039Z,1002.59
2019-03-16T08:07:19.020Z,1002.58
2019-03-16T08:08:19.009Z,1002.56
2019-03-16T08:09:19.110Z,1002.56
2019-03-16T08:10:18.988Z,1002.59
2019-03-16T08:11:18.982Z,1002.61
2019-03-16T08:12:19.479Z,1002.62
2019-03-16T08:13:18.955Z,1002.65
2019-03-16T08:14:18.943Z,1002.69
2019-03-16T08:15:18.931Z,1002.69
2019-03-16T08:16:18.927Z,1002.64
2019-03-16T08:17:18.911Z,1002.65
2019-03-16T08:18:18.919Z,1002.64
2019-03-16T08:19:18.892Z,1002.64
2019-03-16T08:20:18.876Z,1002.60
2019-03-16T08:21:18.866Z,1002.70
2019-03-16T08:22:18.860Z,1002.63
2019-03-16T08:23:18.845Z,1002.68
2019-03-16T08:24:19.118Z,1002.77
2019-03-16T08:25:18.822Z,1002.76
2019-03-16T08:26:18.810Z,1002.78
2019-03-16T08:27:18.799Z,1002.81
2019-03-16T08:28:18.790Z,1002.96
2019-03-16T08:29:18.786Z,1002.91
2019-03-16T08:30:19.052Z,1002.95
2019-03-16T08:31:18.754Z,1002.94
2019-03-16T08:32:18.745Z,1003.04
2019-03-16T08:33:18.735Z,1002.97
2019-03-16T08:34:18.721Z,1003.01
2019-03-16T08:35:18.712Z,1002.95
2019-03-16T08:36:18.988Z,1002.98
2019-03-16T08:37:18.688Z,1002.93
2019-03-16T08:38:18.676Z,1002.93
2019-03-16T08:39:18.666Z,1002.96
2019-03-16T08:40:18.659Z,1002.97
2019-03-16T08:41:18.643Z,1002.98
2019-03-16T08:42:18.656Z,1002.97
2019-03-16T08:43:18.621Z,1002.98
2019-03-16T08:44:18.611Z,1002.96
2019-03-16T08:45:18.601Z,1002.96
2019-03-16T08:46:18.588Z,1002.98
2019-03-16T08:47:18.577Z,1003.00
2019-03-16T08:48:23.081Z,1003.02
2019-03-16T08:49:18.555Z,1002.92
2019-03-16T08:50:18.545Z,1002.99
2019-03-16T08:51:18.532Z,1003.00
2019-03-16T08:52:18.522Z,1002.99
2019-03-16T08:53:18.510Z,1002.99
2019-03-16T08:54:18.520Z,1002.97
2019-03-16T08:55:18.488Z,1002.99
2019-03-16T08:56:18.478Z,1002.94
2019-03-16T08:57:18.466Z,1003.04
2019-03-16T08:58:18.456Z,1002.99
2019-03-16T08:59:18.448Z,1003.04
2019-03-16T09:00:18.476Z,1003.03
2019-03-16T09:01:18.426Z,1003.02
2019-03-16T09:02:18.414Z,1003.02
2019-03-16T09:03:18.401Z,1003.03
2019-03-16T09:04:18.388Z,1002.98
2019-03-16T09:05:18.380Z,1002.99
2019-03-16T09:06:18.644Z,1002.98
2019-03-16T09:07:18.358Z,1002.99
2019-03-16T09:08:18.344Z,1002.94
2019-03-16T09:09:18.336Z,1002.98
2019-03-16T09:10:18.322Z,1002.99
2019-03-16T09:11:18.311Z,1002.97
2019-03-16T09:12:18.629Z,1002.99
2019-03-16T09:13:18.293Z,1003.09
2019-03-16T09:14:18.279Z,1003.01
2019-03-16T09:15:18.269Z,1003.00
2019-03-16T09:16:18.256Z,1002.93
2019-03-16T09:17:18.245Z,1002.97
2019-03-16T09:18:18.254Z,1002.98
2019-03-16T09:19:18.223Z,1003.00
2019-03-16T09:20:18.211Z,1002.93
2019-03-16T09:21:18.200Z,1002.97
2019-03-16T09:22:18.192Z,1002.94
2019-03-16T09:23:18.181Z,1002.93
2019-03-16T09:24:18.441Z,1002.95
2019-03-16T09:25:18.156Z,1002.94
2019-03-16T09:26:18.145Z,1002.92
2019-03-16T09:27:30.219Z,1002.95
2019-03-16T09:28:19.302Z,1002.99
2019-03-16T09:29:18.114Z,1002.95
2019-03-16T09:30:18.127Z,1002.96
2019-03-16T09:31:18.089Z,1002.99
2019-03-16T09:32:18.078Z,1003.02
2019-03-16T09:33:18.115Z,1003.00
2019-03-16T09:34:18.058Z,1003.01
2019-03-16T09:35:18.045Z,1002.99
2019-03-16T09:36:18.044Z,1003.04
2019-03-16T09:37:18.027Z,1003.05
2019-03-16T09:38:18.013Z,1003.04
2019-03-16T09:39:18.001Z,1003.05
2019-03-16T09:40:17.991Z,1003.05
2019-03-16T09:41:17.979Z,1003.03
2019-03-16T09:42:17.988Z,1003.05
2019-03-16T09:43:17.957Z,1003.08
2019-03-16T09:44:17.949Z,1003.08
2019-03-16T09:45:17.934Z,1003.08
2019-03-16T09:46:17.926Z,1003.10
2019-03-16T09:47:17.915Z,1003.00
2019-03-16T09:48:18.180Z,1003.07
2019-03-16T09:49:17.892Z,1003.14
2019-03-16T09:50:17.882Z,1003.17
2019-03-16T09:51:17.882Z,1003.09
2019-03-16T09:52:17.858Z,1003.09
2019-03-16T09:53:17.846Z,1003.14
2019-03-16T09:54:18.128Z,1003.16
2019-03-16T09:55:17.824Z,1003.13
2019-03-16T09:56:17.814Z,1003.16
2019-03-16T09:57:17.802Z,1003.16
2019-03-16T09:58:30.483Z,1003.09
2019-03-16T09:59:18.787Z,1003.25
2019-03-16T10:00:17.773Z,1003.13
2019-03-16T10:01:17.764Z,1003.16
2019-03-16T10:02:17.748Z,1003.16
2019-03-16T10:03:17.737Z,1003.12
2019-03-16T10:04:17.728Z,1003.11
2019-03-16T10:05:17.719Z,1003.12
2019-03-16T10:06:17.702Z,1003.05
2019-03-16T10:07:17.690Z,1003.06
2019-03-16T10:08:19.127Z,1003.00
2019-03-16T10:09:17.669Z,1003.08
2019-03-16T10:10:17.663Z,1003.06
2019-03-16T10:11:17.919Z,1003.10
2019-03-16T10:12:17.639Z,1003.12
2019-03-16T10:13:17.626Z,1003.04
2019-03-16T10:14:17.616Z,1003.13
2019-03-16T10:15:17.604Z,1003.15
2019-03-16T10:16:17.592Z,1003.11
2019-03-16T10:17:17.858Z,1003.08
2019-03-16T10:18:17.577Z,1003.12
2019-03-16T10:19:17.560Z,1003.07
2019-03-16T10:20:17.604Z,1003.08
2019-03-16T10:21:18.862Z,1003.10
2019-03-16T10:22:17.524Z,1003.09
2019-03-16T10:23:18.274Z,1003.05
2019-03-16T10:24:17.505Z,1003.09
2019-03-16T10:25:17.497Z,1003.10
2019-03-16T10:26:17.483Z,1003.07
2019-03-16T10:27:17.470Z,1003.04
2019-03-16T10:28:17.458Z,1003.02
2019-03-16T10:29:17.470Z,1002.99
2019-03-16T10:30:17.437Z,1003.04
2019-03-16T10:31:17.424Z,1003.00
2019-03-16T10:32:17.414Z,1002.97
2019-03-16T10:33:17.403Z,1003.03
2019-03-16T10:34:17.392Z,1002.97
2019-03-16T10:35:17.706Z,1002.95
2019-03-16T10:36:17.371Z,1003.01
2019-03-16T10:37:17.359Z,1003.01
2019-03-16T10:38:17.348Z,1003.06
2019-03-16T10:39:17.337Z,1003.07
2019-03-16T10:40:17.414Z,1002.96
2019-03-16T10:41:17.345Z,1002.99
2019-03-16T10:42:17.303Z,1003.06
2019-03-16T10:43:17.294Z,1003.01
2019-03-16T10:44:17.281Z,1002.96
2019-03-16T10:45:17.271Z,1003.03
2019-03-16T10:46:17.259Z,1003.02
2019-03-16T10:47:17.257Z,1003.02
2019-03-16T10:48:17.237Z,1003.12
2019-03-16T10:49:17.227Z,1003.07
2019-03-16T10:50:17.216Z,1003.09
2019-03-16T10:51:17.205Z,1003.10
2019-03-16T10:52:17.198Z,1003.12
2019-03-16T10:53:17.457Z,1003.13
2019-03-16T10:54:17.174Z,1003.17
2019-03-16T10:55:17.163Z,1003.23
2019-03-16T10:56:17.153Z,1003.15
2019-03-16T10:57:17.139Z,1003.20
2019-03-16T10:58:17.127Z,1003.21
2019-03-16T10:59:17.416Z,1003.20
2019-03-16T11:00:17.107Z,1003.14
2019-03-16T11:01:17.096Z,1003.20
2019-03-16T11:02:17.083Z,1003.18
2019-03-16T11:03:17.075Z,1003.20
2019-03-16T11:04:17.062Z,1003.23
2019-03-16T11:05:17.428Z,1003.16
2019-03-16T11:06:17.039Z,1003.20
2019-03-16T11:07:17.028Z,1003.17
2019-03-16T11:08:17.022Z,1003.25
2019-03-16T11:09:17.007Z,1003.19
2019-03-16T11:10:16.994Z,1003.18
2019-03-16T11:11:17.263Z,1003.19
2019-03-16T11:12:16.976Z,1003.18
2019-03-16T11:13:16.960Z,1003.11
2019-03-16T11:14:16.951Z,1003.12
2019-03-16T11:15:16.941Z,1003.16
2019-03-16T11:16:16.933Z,1003.13
2019-03-16T11:17:16.926Z,1003.15
2019-03-16T11:18:16.905Z,1003.13
2019-03-16T11:19:16.959Z,1003.00
2019-03-16T11:20:16.891Z,1003.08
2019-03-16T11:21:16.873Z,1003.00
2019-03-16T11:22:16.861Z,1002.99
2019-03-16T11:23:17.135Z,1003.07
2019-03-16T11:24:16.839Z,1002.91
2019-03-16T11:25:16.828Z,1002.97
2019-03-16T11:26:16.818Z,1002.92
2019-03-16T11:27:17.306Z,1002.94
2019-03-16T11:28:16.797Z,1003.20
2019-03-16T11:29:17.110Z,1002.98
2019-03-16T11:30:16.776Z,1003.04
2019-03-16T11:31:16.764Z,1003.00
2019-03-16T11:32:16.757Z,1003.05
2019-03-16T11:33:16.739Z,1003.03
2019-03-16T11:34:16.728Z,1003.07
2019-03-16T11:35:17.002Z,1002.96
2019-03-16T11:36:16.709Z,1003.00
2019-03-16T11:37:16.696Z,1002.95
2019-03-16T11:38:16.686Z,1002.99
2019-03-16T11:39:16.677Z,1003.04
2019-03-16T11:40:16.666Z,1003.07
2019-03-16T11:41:16.675Z,1003.05
2019-03-16T11:42:16.639Z,1003.03
2019-03-16T11:43:16.629Z,1003.00
2019-03-16T11:44:16.617Z,1002.97
2019-03-16T11:45:17.301Z,1003.08
2019-03-16T11:46:16.596Z,1003.05
2019-03-16T11:47:16.608Z,1003.13
2019-03-16T11:48:16.576Z,1003.15
2019-03-16T11:49:16.562Z,1003.10
2019-03-16T11:50:16.552Z,1003.14
2019-03-16T11:51:16.581Z,1003.15
2019-03-16T11:52:16.529Z,1003.15
2019-03-16T11:53:16.804Z,1003.12
2019-03-16T11:54:16.508Z,1003.11
2019-03-16T11:55:16.496Z,1003.10
2019-03-16T11:56:18.181Z,1003.11
2019-03-16T11:57:16.475Z,1003.11
2019-03-16T11:58:16.463Z,1003.13
2019-03-16T11:59:21.581Z,1003.10
2019-03-16T12:00:17.439Z,1003.11
2019-03-16T12:01:16.430Z,1003.10
2019-03-16T12:02:16.423Z,1003.11
2019-03-16T12:03:16.410Z,1003.14
2019-03-16T12:04:16.400Z,1003.11
2019-03-16T12:05:16.661Z,1003.12
2019-03-16T12:06:16.375Z,1003.11
2019-03-16T12:07:16.366Z,1003.15
2019-03-16T12:08:16.355Z,1003.11
2019-03-16T12:09:16.342Z,1003.08
2019-03-16T12:10:16.331Z,1003.09
2019-03-16T12:11:16.643Z,1003.09
2019-03-16T12:12:16.308Z,1003.08
2019-03-16T12:13:18.052Z,1003.15
2019-03-16T12:14:16.287Z,1003.12